createdAt,value
2022-09-20T00:01:22.380Z,10.97
2022-09-20T00:03:52.886Z,10.94
2022-09-20T00:06:22.189Z,10.98
2022-09-20T00:08:49.698Z,10.95
2022-09-20T00:11:22.226Z,11.05
2022-09-20T00:13:50.858Z,10.96
2022-09-20T00:16:27.787Z,10.98
2022-09-20T00:18:58.671Z,11.03
2022-09-20T00:21:31.204Z,10.96
2022-09-20T00:23:58.413Z,10.96
2022-09-20T00:26:27.062Z,10.88
2022-09-20T00:28:53.928Z,10.84
2022-09-20T00:31:20.672Z,10.87
2022-09-20T00:34:06.007Z,10.89
2022-09-20T00:36:32.625Z,11.02
2022-09-20T00:39:03.432Z,10.98
2022-09-20T00:41:31.783Z,10.95
2022-09-20T00:44:00.205Z,10.88
2022-09-20T00:46:37.574Z,11.00
2022-09-20T00:49:13.940Z,11.04
2022-09-20T00:51:44.963Z,11.04
2022-09-20T00:54:16.978Z,10.95
2022-09-20T00:56:46.579Z,10.89
2022-09-20T00:59:22.137Z,10.94
2022-09-20T01:01:56.487Z,10.91
2022-09-20T01:04:27.051Z,10.94
2022-09-20T01:06:56.328Z,11.03
2022-09-20T01:09:22.736Z,11.07
2022-09-20T01:11:51.963Z,10.97
2022-09-20T01:14:22.151Z,10.97
2022-09-20T01:16:48.646Z,10.97
2022-09-20T01:19:58.185Z,10.99
2022-09-20T01:22:33.257Z,10.90
2022-09-20T01:25:28.742Z,10.86
2022-09-20T01:27:55.407Z,10.85
2022-09-20T01:30:32.224Z,10.88
2022-09-20T01:33:07.745Z,10.87
2022-09-20T01:35:35.431Z,10.85
2022-09-20T01:38:12.267Z,10.87
2022-09-20T01:40:56.855Z,10.79
2022-09-20T01:43:35.339Z,10.69
2022-09-20T01:46:12.328Z,10.69
2022-09-20T01:48:40.249Z,10.67
2022-09-20T01:51:18.845Z,10.68
2022-09-20T01:53:45.273Z,10.69
2022-09-20T01:56:29.894Z,10.69
2022-09-20T01:59:35.319Z,10.70
2022-09-20T02:02:22.165Z,10.61
2022-09-20T02:05:22.367Z,10.61
2022-09-20T02:08:03.849Z,10.65
2022-09-20T02:10:52.002Z,10.65
2022-09-20T02:13:28.288Z,10.58
2022-09-20T02:15:57.692Z,10.56
2022-09-20T02:18:36.353Z,10.49
2022-09-20T02:21:48.743Z,10.57
2022-09-20T02:24:21.170Z,10.53
2022-09-20T02:27:24.725Z,10.55
2022-09-20T02:30:12.738Z,10.53
2022-09-20T02:32:45.116Z,10.48
2022-09-20T02:35:44.994Z,10.51
2022-09-20T02:38:36.296Z,10.58
2022-09-20T02:41:18.020Z,10.56
2022-09-20T02:44:06.951Z,10.46
2022-09-20T02:47:15.629Z,10.55
2022-09-20T02:50:16.390Z,10.60
2022-09-20T02:53:04.273Z,10.62
2022-09-20T02:55:41.140Z,10.66
2022-09-20T02:58:32.361Z,10.54
2022-09-20T03:01:21.188Z,10.45
2022-09-20T03:04:11.936Z,10.53
2022-09-20T03:06:56.547Z,10.62
2022-09-20T03:09:34.877Z,10.61
2022-09-20T03:12:27.094Z,10.58
2022-09-20T03:15:29.509Z,10.51
2022-09-20T03:18:42.220Z,10.59
2022-09-20T03:21:22.659Z,10.53
2022-09-20T03:24:01.033Z,10.57
2022-09-20T03:26:42.471Z,10.56
2022-09-20T03:29:16.678Z,10.50
2022-09-20T03:32:13.219Z,10.55
2022-09-20T03:34:58.899Z,10.46
2022-09-20T03:37:53.029Z,10.56
2022-09-20T03:40:45.592Z,10.52
2022-09-20T03:43:37.895Z,10.54
2022-09-20T03:46:27.773Z,10.54
2022-09-20T03:49:36.099Z,10.55
2022-09-20T03:52:35.556Z,10.50
2022-09-20T03:55:22.517Z,10.57
2022-09-20T03:58:29.807Z,10.54
2022-09-20T04:01:10.570Z,10.53
2022-09-20T04:03:53.679Z,10.50
2022-09-20T04:06:41.276Z,10.49
2022-09-20T04:09:07.636Z,10.43
2022-09-20T04:12:02.169Z,10.52
2022-09-20T04:15:04.320Z,10.53
2022-09-20T04:17:39.904Z,10.52
2022-09-20T04:20:28.533Z,10.54
2022-09-20T04:22:59.170Z,10.53
2022-09-20T04:25:33.980Z,10.48
2022-09-20T04:28:09.450Z,10.52
2022-09-20T04:30:43.897Z,10.51
2022-09-20T04:33:20.746Z,10.41
2022-09-20T04:36:30.091Z,10.41
2022-09-20T04:39:11.830Z,10.36
2022-09-20T04:42:03.308Z,10.32
2022-09-20T04:44:52.659Z,10.31
2022-09-20T04:47:47.584Z,10.44
2022-09-20T04:50:29.911Z,10.48
2022-09-20T04:53:15.608Z,10.58
2022-09-20T04:56:01.836Z,10.48
2022-09-20T04:58:38.300Z,10.46
2022-09-20T05:01:17.531Z,10.52
2022-09-20T05:04:32.232Z,10.47
2022-09-20T05:07:10.743Z,10.40
2022-09-20T05:10:13.571Z,10.36
2022-09-20T05:12:46.380Z,10.35
2022-09-20T05:15:24.828Z,10.43
2022-09-20T05:18:03.429Z,10.39
2022-09-20T05:20:48.236Z,10.43
2022-09-20T05:23:32.958Z,10.41
2022-09-20T05:26:17.699Z,10.45
2022-09-20T05:28:59.987Z,10.47
2022-09-20T05:31:40.971Z,10.45
2022-09-20T05:34:31.991Z,10.41
2022-09-20T05:37:16.573Z,10.51
2022-09-20T05:39:57.122Z,10.60
2022-09-20T05:42:47.413Z,10.62
2022-09-20T05:45:31.289Z,10.66
2022-09-20T05:48:11.074Z,10.72
2022-09-20T05:50:55.533Z,10.69
2022-09-20T05:54:01.101Z,10.78
2022-09-20T05:57:16.056Z,10.75
2022-09-20T06:00:03.958Z,10.76
2022-09-20T06:02:51.816Z,10.88
2022-09-20T06:05:42.650Z,10.95
2022-09-20T06:08:24.846Z,11.03
2022-09-20T06:10:56.255Z,11.16
2022-09-20T06:13:41.341Z,11.18
2022-09-20T06:16:14.066Z,11.18
2022-09-20T06:18:50.048Z,11.23
2022-09-20T06:21:16.422Z,11.31
2022-09-20T06:23:43.127Z,11.25
2022-09-20T06:26:26.543Z,11.36
2022-09-20T06:29:03.019Z,11.37
2022-09-20T06:31:29.657Z,11.35
2022-09-20T06:34:04.312Z,11.32
2022-09-20T06:36:55.131Z,11.32
2022-09-20T06:39:55.669Z,11.32
2022-09-20T06:42:27.520Z,11.40
2022-09-20T06:44:54.443Z,11.35
2022-09-20T06:47:27.197Z,11.33
2022-09-20T06:50:00.047Z,11.31
2022-09-20T06:52:29.162Z,11.44
2022-09-20T06:54:58.654Z,11.52
2022-09-20T06:57:35.292Z,11.65
2022-09-20T07:00:04.510Z,11.87
2022-09-20T07:02:33.457Z,11.91
2022-09-20T07:04:59.896Z,11.80
2022-09-20T07:07:26.380Z,11.78
2022-09-20T07:09:55.437Z,11.70
2022-09-20T07:12:21.828Z,11.90
2022-09-20T07:14:50.512Z,11.85
2022-09-20T07:17:16.928Z,11.87
2022-09-20T07:19:43.495Z,11.96
2022-09-20T07:22:09.984Z,12.05
2022-09-20T07:24:40.558Z,12.08
2022-09-20T07:27:11.458Z,12.15
2022-09-20T07:29:38.075Z,12.23
2022-09-20T07:32:07.102Z,12.18
2022-09-20T07:34:33.673Z,12.13
2022-09-20T07:37:00.213Z,12.05
2022-09-20T07:39:29.555Z,12.07
2022-09-20T07:41:58.364Z,12.00
2022-09-20T07:44:29.700Z,11.96
2022-09-20T07:46:58.142Z,11.94
2022-09-20T07:49:29.899Z,11.98
2022-09-20T07:51:59.285Z,11.94
2022-09-20T07:54:28.234Z,12.02
2022-09-20T07:56:54.767Z,11.95
2022-09-20T07:59:21.316Z,11.87
2022-09-20T08:01:47.795Z,11.90
2022-09-20T08:04:19.427Z,11.89
2022-09-20T08:06:46.322Z,11.88
2022-09-20T08:09:13.626Z,11.84
2022-09-20T08:11:42.025Z,11.81
2022-09-20T08:14:15.422Z,12.06
2022-09-20T08:16:50.205Z,12.06
2022-09-20T08:19:21.926Z,12.20
2022-09-20T08:21:54.390Z,12.37
2022-09-20T08:24:22.052Z,12.60
2022-09-20T08:26:48.947Z,12.74
2022-09-20T08:29:15.446Z,12.86
2022-09-20T08:31:44.613Z,13.10
2022-09-20T08:34:15.190Z,13.22
2022-09-20T08:36:47.237Z,13.30
2022-09-20T08:42:09.128Z,13.86
2022-09-20T08:45:00.514Z,14.06
2022-09-20T08:47:32.100Z,14.23
2022-09-20T08:50:17.306Z,14.42
2022-09-20T08:52:49.461Z,14.41
2022-09-20T08:55:21.629Z,14.81
2022-09-20T08:57:52.565Z,14.41
2022-09-20T09:00:23.318Z,14.44
2022-09-20T09:05:52.736Z,14.37
2022-09-20T09:08:37.556Z,14.36
2022-09-20T09:11:12.820Z,14.26
2022-09-20T09:14:01.662Z,14.23
2022-09-20T09:16:35.410Z,14.37
2022-09-20T09:22:20.828Z,14.06
2022-09-20T09:25:10.262Z,14.23
2022-09-20T09:27:57.184Z,14.64
2022-09-20T09:30:44.682Z,14.76
2022-09-20T09:33:30.710Z,15.74
2022-09-20T09:36:00.264Z,17.44
2022-09-20T09:38:34.845Z,17.85
2022-09-20T09:41:08.974Z,18.12
2022-09-20T09:43:37.568Z,17.30
2022-09-20T09:46:25.366Z,16.22
2022-09-20T09:49:15.693Z,15.35
2022-09-20T09:52:01.817Z,14.65
2022-09-20T09:54:43.355Z,14.55
2022-09-20T09:57:55.790Z,13.63
2022-09-20T10:00:24.205Z,13.45
2022-09-20T10:03:09.598Z,13.18
2022-09-20T10:06:04.782Z,12.87
2022-09-20T10:08:43.858Z,12.97
2022-09-20T10:11:23.352Z,12.94
2022-09-20T10:14:25.055Z,12.91
2022-09-20T10:16:51.510Z,13.19
2022-09-20T10:19:58.283Z,13.59
2022-09-20T10:23:21.384Z,14.04
2022-09-20T10:26:13.305Z,14.02
2022-09-20T10:28:48.521Z,14.17
2022-09-20T10:31:29.348Z,14.53
2022-09-20T10:34:39.921Z,14.82
2022-09-20T10:37:19.128Z,14.77
2022-09-20T10:39:59.766Z,14.62
2022-09-20T10:42:53.987Z,14.61
2022-09-20T10:46:03.356Z,14.65
2022-09-20T10:48:52.442Z,14.68
2022-09-20T10:51:34.369Z,14.76
2022-09-20T10:54:33.181Z,14.72
2022-09-20T10:57:30.942Z,14.66
2022-09-20T11:00:19.222Z,14.76
2022-09-20T11:03:31.285Z,14.74
2022-09-20T11:06:18.780Z,14.79
2022-09-20T11:08:51.682Z,14.84
2022-09-20T11:11:23.566Z,14.89
2022-09-20T11:13:59.376Z,15.04
2022-09-20T11:16:37.748Z,15.27
2022-09-20T11:19:32.906Z,15.41
2022-09-20T11:22:20.023Z,15.35
2022-09-20T11:25:04.434Z,15.35
2022-09-20T11:27:43.979Z,14.96
2022-09-20T11:30:19.503Z,14.94
2022-09-20T11:33:08.251Z,15.08
2022-09-20T11:36:25.788Z,15.18
2022-09-20T11:42:24.287Z,15.29
2022-09-20T11:44:51.738Z,15.33
2022-09-20T11:47:53.236Z,15.47
2022-09-20T11:50:38.930Z,15.58
2022-09-20T11:53:42.662Z,15.31
2022-09-20T11:56:18.168Z,15.13
2022-09-20T11:58:55.249Z,15.00
2022-09-20T12:01:28.901Z,14.83
2022-09-20T12:04:20.627Z,14.73
2022-09-20T12:06:45.257Z,14.83
2022-09-20T12:09:32.936Z,15.17
2022-09-20T12:12:13.529Z,15.22
2022-09-20T12:14:40.328Z,15.08
2022-09-20T12:18:05.538Z,15.12
2022-09-20T12:20:38.932Z,16.07
2022-09-20T12:23:43.192Z,16.15
2022-09-20T12:26:15.711Z,15.80
2022-09-20T12:28:50.114Z,15.71
2022-09-20T12:31:19.866Z,15.47
2022-09-20T12:34:11.888Z,15.26
2022-09-20T12:36:44.137Z,15.04
2022-09-20T12:39:17.649Z,15.03
2022-09-20T12:41:49.615Z,15.05
2022-09-20T12:44:40.418Z,15.12
2022-09-20T12:47:19.792Z,15.17
2022-09-20T12:50:04.911Z,15.17
2022-09-20T12:53:04.260Z,15.65
2022-09-20T12:55:50.492Z,16.29
2022-09-20T12:58:26.752Z,16.60
2022-09-20T13:00:59.124Z,16.87
2022-09-20T13:03:35.334Z,16.90
2022-09-20T13:06:05.712Z,16.89
2022-09-20T13:08:43.870Z,16.56
2022-09-20T13:11:51.060Z,16.35
2022-09-20T13:14:22.810Z,16.36
2022-09-20T13:16:56.511Z,16.11
2022-09-20T13:19:29.758Z,16.04
2022-09-20T13:22:11.402Z,15.98
2022-09-20T13:24:41.643Z,16.38
2022-09-20T13:27:19.355Z,16.79
2022-09-20T13:29:46.272Z,16.86
2022-09-20T13:32:26.802Z,17.33
2022-09-20T13:35:16.839Z,17.63
2022-09-20T13:37:58.360Z,17.66
2022-09-20T13:40:34.161Z,17.33
2022-09-20T13:43:33.662Z,16.67
2022-09-20T13:46:08.467Z,16.62
2022-09-20T13:48:35.283Z,16.48
2022-09-20T13:51:02.492Z,16.50
2022-09-20T13:53:41.544Z,16.29
2022-09-20T13:56:25.586Z,16.29
2022-09-20T13:58:52.734Z,16.15
2022-09-20T14:01:36.806Z,16.11
2022-09-20T14:04:23.644Z,16.08
2022-09-20T14:06:52.580Z,15.97
2022-09-20T14:09:26.542Z,16.07
2022-09-20T14:11:54.063Z,15.95
2022-09-20T14:14:23.031Z,15.97
2022-09-20T14:16:54.564Z,16.13
2022-09-20T14:19:26.561Z,16.31
2022-09-20T14:21:53.179Z,16.40
2022-09-20T14:24:30.373Z,16.19
2022-09-20T14:27:03.454Z,15.96
2022-09-20T14:29:40.038Z,15.74
2022-09-20T14:32:15.172Z,15.59
2022-09-20T14:34:41.835Z,15.31
2022-09-20T14:37:48.190Z,15.23
2022-09-20T14:40:27.265Z,14.97
2022-09-20T14:42:56.854Z,14.44
2022-09-20T14:45:26.348Z,14.13
2022-09-20T14:48:10.429Z,13.92
2022-09-20T14:50:43.325Z,13.49
2022-09-20T14:53:12.566Z,13.09
2022-09-20T14:55:42.253Z,13.14
2022-09-20T14:58:16.343Z,13.13
2022-09-20T15:00:53.642Z,13.08
2022-09-20T15:03:30.981Z,13.09
2022-09-20T15:06:02.365Z,12.86
2022-09-20T15:08:28.995Z,12.82
2022-09-20T15:10:55.542Z,12.68
2022-09-20T15:13:24.487Z,12.70
2022-09-20T15:15:53.583Z,12.67
2022-09-20T15:18:21.889Z,12.79
2022-09-20T15:20:50.190Z,12.68
2022-09-20T15:23:17.453Z,12.51
2022-09-20T15:25:44.000Z,12.55
2022-09-20T15:28:16.872Z,12.66
2022-09-20T15:30:45.041Z,12.62
2022-09-20T15:33:12.373Z,12.48
2022-09-20T15:35:40.181Z,12.48
2022-09-20T15:38:11.648Z,12.48
2022-09-20T15:40:42.765Z,12.32
2022-09-20T15:43:13.250Z,12.38
2022-09-20T15:46:00.314Z,12.38
2022-09-20T15:48:30.306Z,12.25
2022-09-20T15:51:02.847Z,12.39
2022-09-20T15:53:41.074Z,12.67
2022-09-20T15:56:22.834Z,12.72
2022-09-20T15:58:59.321Z,12.69
2022-09-20T16:01:27.039Z,12.68
2022-09-20T16:03:53.987Z,12.62
2022-09-20T16:06:20.939Z,12.77
2022-09-20T16:08:48.087Z,12.71
2022-09-20T16:11:21.772Z,12.66
2022-09-20T16:13:56.677Z,12.66
2022-09-20T16:16:27.589Z,12.57
2022-09-20T16:19:12.675Z,12.37
2022-09-20T16:21:43.210Z,12.21
2022-09-20T16:24:12.349Z,12.16
2022-09-20T16:26:39.687Z,12.03
2022-09-20T16:29:09.446Z,11.97
2022-09-20T16:31:36.628Z,12.00
2022-09-20T16:34:07.880Z,11.94
2022-09-20T16:36:36.869Z,11.97
2022-09-20T16:39:03.603Z,11.95
2022-09-20T16:41:32.361Z,11.98
2022-09-20T16:43:58.797Z,11.84
2022-09-20T16:46:29.071Z,11.92
2022-09-20T16:48:56.751Z,11.96
2022-09-20T16:51:33.457Z,11.94
2022-09-20T16:54:11.685Z,11.76
2022-09-20T16:56:42.445Z,11.67
2022-09-20T16:59:09.260Z,11.80
2022-09-20T17:01:36.926Z,11.80
2022-09-20T17:04:07.550Z,11.71
2022-09-20T17:06:35.766Z,11.67
2022-09-20T17:09:03.604Z,11.63
2022-09-20T17:11:33.052Z,11.57
2022-09-20T17:14:00.103Z,11.71
2022-09-20T17:16:31.896Z,11.69
2022-09-20T17:19:09.582Z,11.59
2022-09-20T17:21:38.662Z,11.51
2022-09-20T17:24:07.661Z,11.47
2022-09-20T17:26:40.204Z,11.61
2022-09-20T17:29:11.030Z,11.51
2022-09-20T17:31:41.929Z,11.42
2022-09-20T17:34:10.992Z,11.51
2022-09-20T17:36:40.748Z,11.57
2022-09-20T17:39:12.150Z,11.72
2022-09-20T17:41:46.848Z,11.73
2022-09-20T17:44:17.208Z,11.78
2022-09-20T17:46:46.124Z,11.80
2022-09-20T17:49:18.091Z,11.75
2022-09-20T17:51:50.077Z,11.83
2022-09-20T17:54:19.372Z,11.77
2022-09-20T17:56:48.461Z,11.96
2022-09-20T17:59:16.879Z,11.94
2022-09-20T18:01:45.052Z,11.87
2022-09-20T18:04:11.709Z,11.65
2022-09-20T18:06:45.207Z,11.63
2022-09-20T18:09:15.307Z,11.66
2022-09-20T18:11:46.351Z,11.61
2022-09-20T18:14:13.484Z,11.45
2022-09-20T18:16:40.359Z,11.43
2022-09-20T18:19:10.642Z,11.35
2022-09-20T18:21:39.218Z,11.36
2022-09-20T18:24:09.935Z,11.34
2022-09-20T18:26:38.007Z,11.15
2022-09-20T18:29:07.680Z,11.10
2022-09-20T18:31:43.198Z,11.07
2022-09-20T18:34:20.814Z,11.20
2022-09-20T18:36:58.286Z,11.19
2022-09-20T18:39:27.853Z,11.03
2022-09-20T18:41:54.837Z,10.86
2022-09-20T18:44:22.649Z,10.94
2022-09-20T18:46:52.279Z,10.90
2022-09-20T18:49:20.996Z,10.95
2022-09-20T18:51:48.580Z,10.89
2022-09-20T18:54:15.976Z,10.82
2022-09-20T18:56:44.307Z,10.68
2022-09-20T18:59:18.504Z,10.61
2022-09-20T19:01:53.312Z,10.58
2022-09-20T19:04:45.945Z,10.62
2022-09-20T19:07:27.943Z,10.49
2022-09-20T19:10:00.467Z,10.68
2022-09-20T19:12:48.444Z,10.54
2022-09-20T19:15:52.649Z,10.41
2022-09-20T19:18:58.719Z,10.33
2022-09-20T19:21:35.342Z,10.23
2022-09-20T19:24:21.690Z,10.22
2022-09-20T19:26:48.773Z,10.22
2022-09-20T19:29:22.337Z,10.12
2022-09-20T19:31:51.341Z,10.05
2022-09-20T19:34:21.350Z,9.88
2022-09-20T19:37:19.590Z,9.85
2022-09-20T19:40:09.075Z,9.86
2022-09-20T19:42:36.237Z,9.91
2022-09-20T19:45:31.291Z,9.96
2022-09-20T19:48:23.716Z,10.10
2022-09-20T19:50:52.854Z,9.81
2022-09-20T19:53:27.049Z,9.75
2022-09-20T19:56:14.424Z,9.94
2022-09-20T19:58:43.246Z,9.98
2022-09-20T20:01:10.262Z,9.93
2022-09-20T20:03:37.030Z,9.91
2022-09-20T20:06:20.859Z,9.93
2022-09-20T20:08:54.914Z,9.72
2022-09-20T20:11:38.967Z,9.79
2022-09-20T20:14:13.846Z,9.65
2022-09-20T20:16:43.061Z,9.71
2022-09-20T20:19:27.686Z,9.78
2022-09-20T20:22:11.346Z,9.78
2022-09-20T20:24:51.308Z,9.50
2022-09-20T20:27:18.640Z,9.61
2022-09-20T20:29:45.162Z,9.52
2022-09-20T20:32:11.692Z,9.31
2022-09-20T20:34:40.482Z,9.27
2022-09-20T20:37:07.978Z,9.24
2022-09-20T20:39:34.775Z,9.14
2022-09-20T20:42:02.832Z,9.08
2022-09-20T20:44:35.341Z,9.12
2022-09-20T20:47:03.281Z,8.97
2022-09-20T20:49:32.286Z,8.79
2022-09-20T20:52:02.836Z,8.80
2022-09-20T20:54:32.207Z,8.79
2022-09-20T20:57:03.272Z,8.75
2022-09-20T20:59:29.817Z,8.76
2022-09-20T21:01:58.491Z,8.66
2022-09-20T21:04:25.320Z,8.61
2022-09-20T21:06:51.733Z,8.64
2022-09-20T21:09:18.144Z,8.49
2022-09-20T21:11:44.815Z,8.36
2022-09-20T21:14:12.544Z,8.55
2022-09-20T21:16:44.161Z,8.43
2022-09-20T21:19:18.159Z,8.45
2022-09-20T21:21:47.753Z,8.32
2022-09-20T21:24:22.200Z,8.52
2022-09-20T21:26:48.721Z,8.48
2022-09-20T21:29:15.877Z,8.41
2022-09-20T21:31:46.817Z,8.31
2022-09-20T21:34:15.318Z,8.27
2022-09-20T21:36:42.669Z,8.18
2022-09-20T21:39:09.223Z,8.18
2022-09-20T21:41:37.542Z,7.97
2022-09-20T21:44:05.775Z,8.03
2022-09-20T21:46:39.141Z,7.96
2022-09-20T21:49:08.533Z,7.86
2022-09-20T21:51:38.284Z,7.95
2022-09-20T21:54:05.249Z,7.99
2022-09-20T21:56:34.856Z,7.98
2022-09-20T21:59:04.368Z,7.97
2022-09-20T22:01:36.313Z,7.83
2022-09-20T22:04:08.177Z,7.73
2022-09-20T22:06:37.550Z,7.79
2022-09-20T22:09:12.299Z,7.65
2022-09-20T22:11:45.820Z,7.58
2022-09-20T22:14:13.945Z,7.46
2022-09-20T22:16:42.252Z,7.43
2022-09-20T22:19:11.154Z,7.54
2022-09-20T22:21:39.952Z,7.47
2022-09-20T22:24:08.976Z,7.53
2022-09-20T22:26:38.554Z,7.52
2022-09-20T22:29:06.477Z,7.48
2022-09-20T22:31:38.885Z,7.37
2022-09-20T22:34:07.287Z,7.34
2022-09-20T22:36:36.349Z,7.31
2022-09-20T22:39:05.096Z,7.43
2022-09-20T22:41:31.696Z,7.33
2022-09-20T22:43:58.105Z,7.41
2022-09-20T22:46:29.399Z,7.43
2022-09-20T22:48:56.483Z,7.21
2022-09-20T22:51:29.138Z,7.14
2022-09-20T22:53:55.872Z,7.26
2022-09-20T22:56:25.026Z,7.29
2022-09-20T22:58:56.719Z,7.17
2022-09-20T23:01:25.985Z,7.10
2022-09-20T23:04:13.773Z,7.09
2022-09-20T23:06:48.231Z,7.01
2022-09-20T23:09:16.442Z,6.93
2022-09-20T23:11:43.440Z,6.96
2022-09-20T23:14:15.198Z,7.09
2022-09-20T23:16:42.225Z,7.19
2022-09-20T23:19:09.353Z,7.19
2022-09-20T23:21:37.840Z,7.09
2022-09-20T23:24:07.152Z,7.14
2022-09-20T23:26:35.979Z,7.09
2022-09-20T23:29:05.583Z,7.02
2022-09-20T23:31:34.612Z,6.90
2022-09-20T23:34:02.909Z,6.87
2022-09-20T23:36:33.707Z,6.84
2022-09-20T23:39:02.446Z,6.92
2022-09-20T23:41:29.611Z,6.89
2022-09-20T23:43:56.215Z,6.85
2022-09-20T23:46:25.210Z,6.91
2022-09-20T23:48:52.454Z,6.81
2022-09-20T23:51:22.391Z,6.79
2022-09-20T23:53:50.206Z,6.76
2022-09-20T23:56:19.532Z,6.90
2022-09-20T23:58:46.803Z,6.91
